This is the latest recevied weather packets stored in our database for station/object N4WFF. If no packets are shown the sender has not sent any weather packets the latest 1 day(s).
| Time | Temp. | Humidity | Pressure | Rain* | Wind** | Luminosity | Snow |
|---|---|---|---|---|---|---|---|
| 1778078456 | 23.89° C | 83% | 1016.9 hPa | 0 mm | - | 169 W/m² | - |
| 1778077856 | 23.89° C | 82% | 1016.8 hPa | 0 mm | - | 771 W/m² | - |
| 1778076356 | 22.78° C | 87% | 1016.7 hPa | 0 mm | - | 290 W/m² | - |
| 1778076057 | 22.78° C | 87% | 1016.7 hPa | 0 mm | - | 251 W/m² | - |
| 1778075756 | 22.22° C | 88% | 1016.6 hPa | 0 mm | - | 300 W/m² | - |
| 1778075456 | 22.22° C | 90% | 1016.5 hPa | 0 mm | - | 496 W/m² | - |
| 1778075156 | 21.67° C | 91% | 1016.4 hPa | 0 mm | - | 230 W/m² | - |
| 1778074859 | 21.11° C | 92% | 1016.4 hPa | 0 mm | - | 329 W/m² | - |
| 1778073956 | 20.56° C | 96% | 1016.2 hPa | 0 mm | - | 193 W/m² | - |
| 1778072156 | 20° C | 98% | 1015.7 hPa | 0 mm | - | 90 W/m² | - |
| 1778071856 | 20° C | 98% | 1015.6 hPa | 0 mm | - | 98 W/m² | - |
| 1778069756 | 19.44° C | 98% | 1015.4 hPa | 0 mm | - | 75 W/m² | - |
| 1778069158 | 19.44° C | 97% | 1015.3 hPa | 0 mm | - | 27 W/m² | - |
| 1778068856 | 19.44° C | 97% | 1015.2 hPa | 0 mm | - | 36 W/m² | - |
| 1778067656 | 18.89° C | 97% | 1014.6 hPa | 0 mm | - | 36 W/m² | - |
| 1778067056 | 18.89° C | 97% | 1014.5 hPa | 0 mm | - | 23 W/m² | - |
| 1778066456 | 18.89° C | 97% | 1014.3 hPa | 0 mm | - | 17 W/m² | - |
| 1778066156 | 18.33° C | 97% | 1014.3 hPa | 0 mm | - | 13 W/m² | - |
| 1778065856 | 18.33° C | 97% | 1014.2 hPa | 0 mm | - | 10 W/m² | - |
| 1778065556 | 18.33° C | 97% | 1014.1 hPa | 0 mm | - | 7 W/m² | - |
| 1778065256 | 18.33° C | 97% | 1014 hPa | 0 mm | - | 3 W/m² | - |
| 1778064055 | 18.33° C | 97% | 1013.6 hPa | 0 mm | - | 0 W/m² | - |
| 1778063756 | 18.33° C | 97% | 1013.5 hPa | 0 mm | - | 0 W/m² | - |
| 1778062256 | 17.78° C | 97% | 1013.1 hPa | 0 mm | - | 0 W/m² | - |
| 1778059256 | 17.78° C | 96% | 1013.2 hPa | 0 mm | - | 0 W/m² | - |
* Rain latest hour (hover to see other rain measurements)
** Current wind speed in m/s (hover to see current wind gust speed)